Saint Rose, Illinois
Current Conditions -  °F | °C
As of 10:20 PM on Wednesday 26 Nov 2014 (Local Time) from KBLV Reporting Station
Light Rain Light Rain  
Wind Chill: 27°   Ceiling: 800
Heat Index: 32°   Visibility: 2.5mi
Dew Point: 32°   Wind: 5mph
Humidity: 100%   Direction: 10°N
Pressure: 30.13"   Gusts: NA
Location:  38.6297°N, 89.5228°W
Report Text: KBLV 270420Z AUTO 01004KT 2 1/2SM R14R/3500FT -RA BR OVC008 00/00 A3013 RMK AO2 UPE0359RAB0411 CIG 005V010
Loading
Personal Weather Stations






























Interactive Weather Map New forecast layout! Learn more

10-Day Weather Forecast

Advertisements
Track Severe Weather on mobile